createdAt,value
2023-03-22T06:03:16.973Z,500.00
2023-03-22T06:09:17.712Z,400.00
2023-03-22T06:12:15.652Z,400.00
2023-03-22T06:13:15.752Z,400.00
2023-03-22T06:42:17.059Z,501.00
2023-03-22T10:43:22.389Z,539.00
2023-03-22T10:45:22.417Z,537.00
2023-03-22T10:46:22.915Z,535.00
2023-03-22T10:47:22.477Z,537.00
2023-03-22T10:49:22.561Z,535.00
2023-03-22T10:51:22.699Z,537.00
2023-03-22T10:52:22.853Z,533.00
2023-03-22T10:53:22.693Z,536.00
2023-03-22T10:54:25.149Z,540.00
2023-03-22T10:55:22.746Z,540.00
2023-03-22T10:56:22.802Z,542.00
2023-03-22T10:58:40.916Z,500.00
2023-03-22T10:59:40.924Z,500.00
2023-03-22T11:00:42.461Z,500.00
2023-03-22T11:01:42.035Z,500.00
2023-03-22T11:02:41.916Z,500.00
2023-03-22T11:03:41.912Z,506.00
2023-03-22T11:04:41.855Z,500.00
2023-03-22T11:05:41.998Z,506.00
2023-03-22T11:06:41.894Z,511.00
2023-03-22T11:07:40.833Z,511.00
2023-03-22T11:08:40.930Z,518.00
2023-03-22T11:09:41.817Z,508.00
2023-03-22T11:10:41.885Z,515.00
2023-03-22T11:11:41.808Z,519.00
2023-03-22T11:12:40.823Z,519.00
2023-03-22T11:13:42.115Z,535.00
2023-03-22T11:14:41.888Z,535.00
2023-03-22T11:15:42.186Z,533.00
2023-03-22T11:16:42.152Z,542.00
2023-03-22T11:17:43.333Z,547.00
2023-03-22T11:18:42.094Z,548.00
2023-03-22T11:19:42.264Z,549.00
2023-03-22T11:20:42.689Z,550.00
2023-03-22T11:21:42.222Z,557.00
2023-03-22T11:22:41.283Z,564.00
2023-03-22T11:23:42.283Z,560.00
2023-03-22T11:24:41.283Z,569.00
2023-03-22T11:25:41.320Z,569.00
2023-03-22T11:26:42.373Z,568.00
2023-03-22T11:27:42.414Z,566.00
2023-03-22T11:28:41.456Z,573.00
2023-03-22T11:29:41.528Z,567.00
2023-03-22T11:30:41.766Z,572.00
2023-03-22T11:31:41.687Z,573.00
2023-03-22T11:32:42.771Z,569.00
2023-03-22T11:33:42.678Z,565.00
2023-03-22T11:34:42.713Z,564.00
2023-03-22T11:35:41.810Z,570.00
2023-03-22T11:36:41.937Z,566.00
2023-03-22T11:37:42.884Z,573.00
2023-03-22T11:38:43.251Z,573.00
2023-03-22T11:39:42.833Z,575.00
2023-03-22T11:40:43.175Z,553.00
2023-03-22T11:41:42.866Z,557.00
2023-03-22T11:42:43.134Z,572.00
2023-03-22T11:43:43.001Z,576.00
2023-03-22T11:44:43.022Z,575.00
2023-03-22T11:45:43.297Z,579.00
2023-03-22T11:46:43.223Z,580.00
2023-03-22T11:47:43.742Z,563.00
2023-03-22T11:48:43.414Z,568.00
2023-03-22T11:49:43.258Z,570.00
2023-03-22T11:50:43.713Z,570.00
2023-03-22T11:51:43.431Z,571.00
2023-03-22T11:52:43.405Z,564.00
2023-03-22T11:53:43.497Z,555.00
2023-03-22T11:54:43.487Z,554.00
2023-03-22T11:55:43.801Z,564.00
2023-03-22T11:56:43.629Z,564.00
2023-03-22T11:57:42.650Z,562.00
2023-03-22T11:58:42.691Z,534.00
2023-03-22T11:59:43.791Z,480.00
2023-03-22T12:00:42.746Z,459.00
2023-03-22T12:01:43.803Z,400.00
2023-03-22T12:02:43.977Z,475.00
2023-03-22T12:03:44.156Z,500.00
2023-03-22T12:04:44.009Z,500.00
2023-03-22T12:05:44.391Z,526.00
2023-03-22T12:06:44.016Z,575.00
2023-03-22T12:07:43.990Z,595.00
2023-03-22T12:08:44.025Z,631.00
2023-03-22T12:09:42.990Z,652.00
2023-03-22T12:10:44.051Z,668.00
2023-03-22T12:11:44.061Z,683.00
2023-03-22T12:12:44.110Z,693.00
2023-03-22T12:13:43.163Z,710.00
2023-03-22T12:14:44.234Z,725.00
2023-03-22T12:15:43.640Z,742.00
2023-03-22T12:16:44.397Z,760.00
2023-03-22T12:17:44.549Z,771.00
2023-03-22T12:18:44.461Z,765.00
2023-03-22T12:19:43.528Z,772.00
2023-03-22T12:20:44.564Z,794.00
2023-03-22T12:21:44.622Z,807.00
2023-03-22T12:22:43.765Z,804.00
2023-03-22T12:23:44.755Z,833.00
2023-03-22T12:24:44.764Z,810.00
2023-03-22T12:25:43.797Z,810.00
2023-03-22T12:26:44.883Z,804.00
2023-03-22T12:27:43.961Z,802.00
2023-03-22T12:28:43.973Z,822.00
2023-03-22T12:29:44.111Z,800.00
2023-03-22T12:30:45.040Z,784.00
2023-03-22T12:31:45.224Z,732.00
2023-03-22T12:32:45.137Z,752.00
2023-03-22T12:33:45.062Z,767.00
2023-03-22T12:34:45.112Z,757.00
2023-03-22T12:35:44.392Z,766.00
2023-03-22T12:36:45.105Z,788.00
2023-03-22T12:37:45.149Z,814.00
2023-03-22T12:38:44.137Z,819.00
2023-03-22T12:39:44.164Z,842.00
2023-03-22T12:40:45.242Z,838.00
2023-03-22T12:41:45.206Z,848.00
2023-03-22T12:42:51.158Z,863.00
2023-03-22T12:43:45.244Z,865.00
2023-03-22T12:44:55.567Z,872.00
2023-03-22T12:45:45.255Z,866.00
2023-03-22T12:46:45.278Z,877.00
2023-03-22T12:47:45.290Z,896.00
2023-03-22T12:48:46.540Z,918.00
2023-03-22T12:49:45.229Z,963.00
2023-03-22T12:50:45.257Z,965.00
2023-03-22T12:51:45.284Z,971.00
2023-03-22T12:52:45.976Z,978.00
2023-03-22T12:53:45.312Z,986.00
2023-03-22T12:54:45.343Z,974.00
2023-03-22T12:55:45.417Z,978.00
2023-03-22T12:56:45.474Z,986.00
2023-03-22T12:57:45.528Z,988.00
2023-03-22T12:58:45.584Z,987.00
2023-03-22T12:59:45.631Z,979.00
2023-03-22T13:00:45.713Z,985.00
2023-03-22T13:01:45.770Z,983.00
2023-03-22T13:02:45.915Z,978.00
2023-03-22T13:03:45.971Z,982.00
2023-03-22T13:04:45.935Z,986.00
2023-03-22T13:05:44.982Z,975.00
2023-03-22T13:06:46.044Z,974.00
2023-03-22T13:07:45.087Z,985.00
2023-03-22T13:08:45.100Z,967.00
2023-03-22T13:09:45.139Z,976.00
2023-03-22T13:10:45.166Z,969.00
2023-03-22T13:11:46.180Z,964.00
2023-03-22T13:12:46.212Z,961.00
2023-03-22T13:13:46.205Z,964.00
2023-03-22T13:14:46.201Z,961.00
2023-03-22T13:15:46.204Z,958.00
2023-03-22T13:16:46.265Z,958.00
2023-03-22T13:17:45.338Z,945.00
2023-03-22T13:18:46.316Z,960.00
2023-03-22T13:19:46.343Z,954.00
2023-03-22T13:20:46.356Z,942.00
2023-03-22T13:21:46.357Z,938.00
2023-03-22T13:22:46.345Z,947.00
2023-03-22T13:23:46.363Z,952.00
2023-03-22T13:24:46.349Z,941.00
2023-03-22T13:25:46.360Z,948.00
2023-03-22T13:26:45.354Z,944.00
2023-03-22T13:27:46.345Z,939.00
2023-03-22T13:28:46.376Z,935.00
2023-03-22T13:29:45.348Z,941.00
2023-03-22T13:30:45.355Z,923.00
2023-03-22T13:31:46.437Z,923.00
2023-03-22T13:32:46.448Z,919.00
2023-03-22T13:33:46.381Z,924.00
2023-03-22T13:34:46.409Z,914.00
2023-03-22T13:35:46.458Z,917.00
2023-03-22T13:36:46.417Z,925.00
2023-03-22T13:37:46.429Z,914.00
2023-03-22T13:38:46.428Z,903.00
2023-03-22T13:39:46.437Z,924.00
2023-03-22T13:40:46.454Z,916.00
2023-03-22T13:41:46.463Z,914.00
2023-03-22T13:42:46.477Z,908.00
2023-03-22T13:43:46.471Z,909.00
2023-03-22T13:44:46.494Z,900.00
2023-03-22T13:45:46.539Z,897.00
2023-03-22T13:46:46.696Z,905.00
2023-03-22T13:47:46.688Z,897.00
2023-03-22T13:48:46.662Z,902.00
2023-03-22T13:49:46.513Z,896.00
2023-03-22T13:50:46.522Z,910.00
2023-03-22T13:51:46.517Z,898.00
2023-03-22T13:52:45.530Z,900.00
2023-03-22T13:53:45.538Z,907.00
2023-03-22T13:54:46.553Z,901.00
2023-03-22T13:55:46.562Z,906.00
2023-03-22T13:56:45.570Z,893.00
2023-03-22T13:57:46.603Z,899.00
2023-03-22T13:58:46.604Z,901.00
2023-03-22T13:59:47.896Z,893.00
2023-03-22T14:00:46.635Z,892.00
2023-03-22T14:01:45.698Z,894.00
2023-03-22T14:02:46.813Z,904.00
2023-03-22T14:03:46.672Z,894.00
2023-03-22T14:04:45.675Z,899.00
2023-03-22T14:05:46.662Z,900.00
2023-03-22T14:06:46.663Z,898.00
2023-03-22T14:07:45.694Z,892.00
2023-03-22T14:08:45.687Z,895.00
2023-03-22T14:09:46.697Z,894.00
2023-03-22T14:10:46.694Z,900.00
2023-03-22T14:11:46.713Z,893.00
2023-03-22T14:12:46.760Z,889.00
2023-03-22T14:13:46.740Z,890.00
2023-03-22T14:14:46.789Z,891.00
2023-03-22T14:15:47.067Z,889.00
2023-03-22T14:16:46.807Z,882.00
2023-03-22T14:17:48.724Z,885.00
2023-03-22T14:18:45.806Z,886.00
2023-03-22T14:19:46.785Z,886.00
2023-03-22T14:20:46.818Z,887.00
2023-03-22T14:21:46.774Z,887.00
2023-03-22T14:49:45.584Z,866.00
2023-03-22T14:50:45.585Z,866.00
2023-03-22T14:51:46.575Z,861.00
2023-03-22T14:53:45.619Z,867.00
2023-03-22T14:54:46.542Z,854.00
2023-03-22T14:55:46.554Z,863.00
2023-03-22T14:56:45.555Z,859.00
2023-03-22T14:57:46.533Z,845.00
2023-03-22T14:59:45.526Z,854.00
2023-03-22T15:00:46.516Z,835.00
2023-03-22T15:03:45.487Z,835.00
2023-03-22T15:05:45.472Z,846.00
2023-03-22T15:06:45.468Z,844.00
2023-03-22T15:07:45.455Z,834.00
2023-03-22T15:08:46.475Z,843.00
2023-03-22T15:09:46.452Z,841.00
2023-03-22T15:10:46.458Z,834.00
2023-03-22T15:12:45.434Z,834.00
2023-03-22T15:13:46.404Z,837.00
2023-03-22T15:16:45.398Z,841.00
2023-03-22T15:17:46.396Z,838.00
2023-03-22T15:18:46.406Z,841.00
2023-03-22T15:20:45.375Z,841.00
2023-03-22T15:21:46.362Z,836.00
2023-03-22T15:22:46.437Z,842.00
2023-03-22T15:24:45.345Z,830.00
2023-03-22T15:25:46.360Z,826.00
2023-03-22T15:26:46.338Z,835.00
2023-03-22T15:28:46.689Z,831.00
2023-03-22T15:29:46.292Z,825.00
2023-03-22T15:31:45.326Z,828.00
2023-03-22T15:32:46.309Z,827.00
2023-03-22T15:36:45.249Z,831.00
2023-03-22T15:37:46.268Z,831.00
2023-03-22T15:39:45.235Z,840.00
2023-03-22T15:40:46.260Z,838.00
2023-03-22T15:41:46.234Z,834.00
2023-03-22T15:42:46.237Z,829.00
2023-03-22T15:43:46.221Z,827.00
2023-03-22T15:46:45.187Z,834.00
2023-03-22T15:47:46.217Z,831.00
2023-03-22T15:48:46.188Z,838.00
2023-03-22T15:49:45.172Z,840.00
2023-03-22T15:50:45.182Z,832.00
2023-03-22T15:51:46.158Z,825.00
2023-03-22T15:52:46.172Z,827.00
2023-03-22T15:54:45.144Z,822.00
2023-03-22T15:55:46.144Z,835.00
2023-03-22T15:57:45.117Z,823.00
2023-03-22T15:58:46.111Z,829.00
2023-03-22T15:59:46.116Z,827.00
2023-03-22T16:00:46.194Z,822.00
2023-03-22T16:04:45.068Z,821.00
2023-03-22T16:05:46.052Z,823.00
2023-03-22T16:06:46.094Z,815.00
2023-03-22T16:10:45.069Z,810.00
2023-03-22T16:11:46.062Z,816.00
2023-03-22T16:12:46.092Z,810.00
2023-03-22T16:13:46.079Z,804.00
2023-03-22T16:14:46.093Z,809.00
2023-03-22T16:16:45.167Z,802.00
2023-03-22T16:17:46.125Z,805.00
2023-03-22T16:18:46.174Z,807.00
2023-03-22T16:19:46.155Z,794.00
2023-03-22T16:21:45.154Z,800.00
2023-03-22T16:22:46.191Z,800.00
2023-03-22T16:26:45.227Z,798.00
2023-03-22T16:27:46.222Z,793.00
2023-03-22T16:28:46.245Z,791.00
